Time;durP1;ratioP1;P1;durP2;ratioP2;P2;SDS_P1;SDS_P2;PMS_P1;PMS_P2;Temp;Humidity;BMP_temperature;BMP_pressure;BME280_temperature;BME280_humidity;BME280_pressure;Samples;Min_cycle;Max_cycle;Signal;HPM_P1;HPM_P2
2021/01/07 00:01:15;;;;;;;4.90;2.97;;;3.00;99.90;;;;;;4992788;28;20170;-83
2021/01/07 00:03:41;;;;;;;5.20;3.50;;;3.00;99.90;;;;;;4992797;28;20514;-83
2021/01/07 00:06:11;;;;;;;6.60;3.93;;;3.00;99.90;;;;;;4991584;28;20515;-83
2021/01/07 00:08:36;;;;;;;5.10;3.27;;;3.00;99.90;;;;;;4991692;28;20180;-82
2021/01/07 00:11:04;;;;;;;6.10;4.80;;;3.00;99.90;;;;;;4991483;28;20907;-83
2021/01/07 00:13:30;;;;;;;4.47;3.57;;;3.00;99.90;;;;;;4990819;28;20214;-83
2021/01/07 00:15:56;;;;;;;7.60;4.00;;;3.00;99.90;;;;;;4992584;28;20412;-84
2021/01/07 00:18:21;;;;;;;6.47;4.23;;;3.10;99.90;;;;;;5007750;28;20422;-83
2021/01/07 00:20:47;;;;;;;7.30;4.67;;;3.00;99.90;;;;;;4992626;28;20415;-82
2021/01/07 00:23:13;;;;;;;5.77;3.57;;;3.00;99.90;;;;;;4992473;28;20259;-83
2021/01/07 00:25:45;;;;;;;7.80;4.07;;;3.00;99.90;;;;;;4992541;28;20195;-82
2021/01/07 00:28:11;;;;;;;6.83;4.10;;;3.00;99.90;;;;;;4992284;28;20230;-83
2021/01/07 00:30:36;;;;;;;6.87;5.10;;;2.90;99.90;;;;;;4991232;28;20897;-84
2021/01/07 00:33:02;;;;;;;6.10;3.80;;;2.90;99.90;;;;;;4992369;28;20207;-83
2021/01/07 00:35:28;;;;;;;4.93;4.20;;;2.90;99.90;;;;;;4992561;28;20254;-84
2021/01/07 00:37:54;;;;;;;6.23;4.30;;;3.10;99.90;;;;;;4991245;28;20204;-84
2021/01/07 00:40:20;;;;;;;7.17;4.90;;;3.00;99.90;;;;;;5007590;28;20428;-84
2021/01/07 00:42:45;;;;;;;4.27;2.93;;;2.90;99.90;;;;;;4993902;28;20186;-82
2021/01/07 00:45:11;;;;;;;4.60;3.80;;;2.90;99.90;;;;;;4999495;28;20185;-83
2021/01/07 00:47:37;;;;;;;6.97;3.93;;;2.90;99.90;;;;;;5001552;28;20182;-83
2021/01/07 00:50:04;;;;;;;8.27;5.20;;;2.90;99.90;;;;;;5011907;28;20422;-82
2021/01/07 00:52:29;;;;;;;4.83;3.60;;;2.80;99.90;;;;;;5011612;28;20222;-83
2021/01/07 00:54:55;;;;;;;4.20;2.87;;;2.80;99.90;;;;;;5011890;28;20417;-82
2021/01/07 00:57:21;;;;;;;5.30;3.83;;;2.80;99.90;;;;;;5011745;28;20178;-82
2021/01/07 00:59:46;;;;;;;5.60;3.20;;;2.90;99.90;;;;;;5013461;28;20167;-84
2021/01/07 01:02:12;;;;;;;4.50;3.17;;;2.90;99.90;;;;;;5015489;28;20171;-83
2021/01/07 01:04:37;;;;;;;5.70;3.17;;;2.90;99.90;;;;;;5014338;28;20587;-83
2021/01/07 01:07:03;;;;;;;4.20;3.60;;;2.90;99.90;;;;;;5014349;28;20179;-83
2021/01/07 01:09:28;;;;;;;5.90;3.77;;;2.90;99.90;;;;;;5015641;28;20225;-84
2021/01/07 01:11:54;;;;;;;4.93;3.57;;;2.90;99.90;;;;;;5015096;28;20785;-84
2021/01/07 01:14:20;;;;;;;5.40;3.60;;;2.90;99.90;;;;;;5016066;28;20166;-83
2021/01/07 01:16:50;;;;;;;5.50;4.07;;;2.90;99.90;;;;;;5016561;28;20167;-84
2021/01/07 01:19:17;;;;;;;4.47;3.13;;;2.90;99.90;;;;;;5000193;28;20535;-84
2021/01/07 01:21:42;;;;;;;4.07;3.33;;;2.90;99.90;;;;;;4995418;28;20445;-83
2021/01/07 01:24:09;;;;;;;4.67;4.17;;;2.90;99.90;;;;;;4996738;28;20429;-85
2021/01/07 01:26:35;;;;;;;9.50;3.00;;;2.90;99.90;;;;;;4995001;28;20188;-85
2021/01/07 01:29:01;;;;;;;4.57;3.17;;;2.90;99.90;;;;;;5011665;28;20430;-85
2021/01/07 01:31:27;;;;;;;4.13;3.13;;;2.90;99.90;;;;;;5011748;28;20185;-86
2021/01/07 01:33:53;;;;;;;5.50;4.50;;;2.90;99.90;;;;;;4996282;28;20503;-86
2021/01/07 01:36:26;;;;;;;6.90;4.33;;;2.90;99.90;;;;;;4995328;28;20970;-85
2021/01/07 01:38:52;;;;;;;6.63;4.00;;;2.80;99.90;;;;;;4996585;28;20174;-86
2021/01/07 01:41:17;;;;;;;5.50;3.30;;;2.70;99.90;;;;;;4996069;28;20417;-86
2021/01/07 01:43:43;;;;;;;8.03;4.30;;;2.70;99.90;;;;;;4996298;28;20422;-86
2021/01/07 01:46:08;;;;;;;6.03;3.80;;;2.70;99.90;;;;;;4994954;28;20185;-86
2021/01/07 01:48:34;;;;;;;5.80;4.17;;;2.70;99.90;;;;;;4996335;28;20179;-85
2021/01/07 01:51:00;;;;;;;6.90;3.90;;;2.70;99.90;;;;;;4994683;28;20225;-86
2021/01/07 01:53:26;;;;;;;6.93;3.73;;;2.70;99.90;;;;;;4994742;28;20215;-86
2021/01/07 01:55:52;;;;;;;6.50;4.70;;;2.70;99.90;;;;;;4996188;28;20171;-86
2021/01/07 01:58:18;;;;;;;5.47;3.87;;;2.70;99.90;;;;;;4994607;28;20207;-86
2021/01/07 02:00:44;;;;;;;6.63;4.30;;;2.60;99.90;;;;;;4996070;28;20415;-85
2021/01/07 02:03:10;;;;;;;7.03;3.97;;;2.60;99.90;;;;;;4994600;28;20447;-85
2021/01/07 02:05:37;;;;;;;6.47;4.20;;;2.70;99.90;;;;;;4994750;28;20181;-85
2021/01/07 02:08:04;;;;;;;5.80;3.80;;;2.70;99.90;;;;;;4994778;28;20450;-86
2021/01/07 02:10:32;;;;;;;9.17;4.80;;;2.80;99.90;;;;;;4993815;28;20418;-86
2021/01/07 02:12:58;;;;;;;9.30;4.70;;;2.80;99.90;;;;;;4993895;28;20481;-86
2021/01/07 02:15:24;;;;;;;6.37;4.10;;;2.70;99.90;;;;;;4995813;28;20778;-86
2021/01/07 02:17:50;;;;;;;8.03;5.13;;;2.70;99.90;;;;;;5010526;28;20430;-85
2021/01/07 02:20:25;;;;;;;5.90;3.20;;;2.70;99.90;;;;;;5010747;28;20512;-86
2021/01/07 02:22:55;;;;;;;5.90;3.93;;;2.70;99.90;;;;;;4995837;28;20258;-84
2021/01/07 02:25:22;;;;;;;6.93;4.93;;;2.80;99.90;;;;;;5010634;28;20415;-85
2021/01/07 02:27:48;;;;;;;8.37;4.63;;;2.70;99.90;;;;;;5010282;28;20795;-85
2021/01/07 02:30:14;;;;;;;7.57;5.00;;;2.70;99.90;;;;;;5009572;28;20758;-85
2021/01/07 02:32:40;;;;;;;10.23;5.07;;;2.70;99.90;;;;;;5004756;28;20489;-85
2021/01/07 02:35:08;;;;;;;7.30;5.00;;;2.70;99.90;;;;;;5020372;28;20466;-85
2021/01/07 02:37:34;;;;;;;6.80;4.77;;;2.70;99.90;;;;;;5020255;28;20174;-85
2021/01/07 02:40:00;;;;;;;9.00;6.00;;;2.70;99.90;;;;;;5003271;28;20429;-85
2021/01/07 02:42:26;;;;;;;8.70;5.07;;;2.70;99.90;;;;;;5003400;28;20787;-85
2021/01/07 02:44:52;;;;;;;7.73;5.47;;;2.70;99.90;;;;;;4997712;28;20533;-85
2021/01/07 02:47:17;;;;;;;8.43;5.43;;;2.70;99.90;;;;;;4995347;28;20197;-85
2021/01/07 02:49:43;;;;;;;8.73;4.80;;;2.70;99.90;;;;;;4995737;28;20410;-85
2021/01/07 02:52:09;;;;;;;8.27;5.17;;;2.80;99.90;;;;;;4995315;28;20666;-85
2021/01/07 02:54:34;;;;;;;10.07;7.30;;;2.80;99.90;;;;;;4995525;28;20540;-85
2021/01/07 02:57:02;;;;;;;8.10;4.90;;;2.70;99.90;;;;;;4994740;28;20503;-85
2021/01/07 02:59:27;;;;;;;10.63;7.13;;;2.80;99.90;;;;;;5002639;28;20243;-84
2021/01/07 03:01:53;;;;;;;7.50;5.17;;;2.80;99.90;;;;;;5001035;28;20501;-85
2021/01/07 03:04:20;;;;;;;8.20;5.87;;;2.80;99.90;;;;;;5001594;28;20179;-84
2021/01/07 03:06:45;;;;;;;9.30;6.47;;;2.80;99.90;;;;;;5002262;28;20555;-85
2021/01/07 03:09:11;;;;;;;10.87;6.97;;;2.90;99.90;;;;;;5004150;28;20548;-85
2021/01/07 03:11:36;;;;;;;9.93;5.53;;;2.90;99.90;;;;;;5003004;28;20454;-84
2021/01/07 03:14:02;;;;;;;9.90;5.67;;;2.80;99.90;;;;;;5004995;28;20208;-85
2021/01/07 03:16:28;;;;;;;10.40;6.33;;;2.90;99.90;;;;;;5014471;28;20246;-85
2021/01/07 03:18:54;;;;;;;9.03;6.37;;;2.90;99.90;;;;;;5014066;28;20517;-85
2021/01/07 03:21:19;;;;;;;9.90;6.73;;;2.90;99.90;;;;;;5014351;28;20505;-84
2021/01/07 03:23:45;;;;;;;13.80;6.33;;;2.80;99.90;;;;;;4996091;28;20671;-85
2021/01/07 03:26:10;;;;;;;9.63;6.77;;;2.90;99.90;;;;;;4991370;28;20193;-84
2021/01/07 03:28:36;;;;;;;9.80;6.00;;;2.80;99.90;;;;;;4994011;28;20266;-84
2021/01/07 03:31:02;;;;;;;10.83;7.03;;;2.90;99.90;;;;;;4994547;28;20186;-84
2021/01/07 03:33:27;;;;;;;11.63;7.33;;;2.90;99.90;;;;;;4992973;28;20213;-84
2021/01/07 03:35:53;;;;;;;10.17;5.83;;;2.90;99.90;;;;;;4993110;28;20172;-84
2021/01/07 03:38:18;;;;;;;9.10;6.73;;;2.80;99.90;;;;;;4993130;28;20182;-84
2021/01/07 03:40:44;;;;;;;12.83;7.17;;;2.80;99.90;;;;;;4994076;28;20188;-84
2021/01/07 03:43:09;;;;;;;11.20;6.50;;;2.80;99.90;;;;;;4992674;28;20183;-84
2021/01/07 03:45:35;;;;;;;8.67;6.10;;;2.80;99.90;;;;;;4992656;28;20186;-84
2021/01/07 03:48:01;;;;;;;11.93;5.73;;;2.80;99.90;;;;;;4992566;28;20224;-83
2021/01/07 03:50:26;;;;;;;8.87;6.67;;;2.90;99.90;;;;;;5009139;28;20203;-84
2021/01/07 03:52:52;;;;;;;11.87;6.63;;;2.80;99.90;;;;;;4993792;28;20745;-84
2021/01/07 03:55:18;;;;;;;7.80;5.37;;;2.80;99.90;;;;;;4992733;28;20202;-84
2021/01/07 03:57:43;;;;;;;9.87;5.90;;;2.80;99.90;;;;;;4992471;28;20179;-85
2021/01/07 04:00:09;;;;;;;7.00;4.63;;;2.70;99.90;;;;;;4993961;28;20213;-85
2021/01/07 04:02:35;;;;;;;7.77;5.27;;;2.70;99.90;;;;;;4992185;28;20269;-85
2021/01/07 04:05:00;;;;;;;9.60;6.33;;;2.70;99.90;;;;;;4993867;28;20930;-85
2021/01/07 04:07:26;;;;;;;9.80;6.23;;;2.70;99.90;;;;;;4993489;28;20304;-85
2021/01/07 04:09:51;;;;;;;9.50;6.40;;;2.80;99.90;;;;;;4993866;28;20183;-85
2021/01/07 04:12:17;;;;;;;11.27;7.10;;;2.80;99.90;;;;;;5008515;28;20218;-85
2021/01/07 04:14:43;;;;;;;11.20;6.20;;;2.80;99.90;;;;;;4993774;28;20176;-84
2021/01/07 04:17:08;;;;;;;7.10;5.23;;;2.80;99.90;;;;;;4992430;28;20193;-84
2021/01/07 04:19:34;;;;;;;11.93;6.20;;;2.80;99.90;;;;;;4993669;28;20211;-84
2021/01/07 04:22:00;;;;;;;9.37;6.20;;;2.80;99.90;;;;;;4992221;28;20190;-84
2021/01/07 04:24:26;;;;;;;8.07;5.20;;;2.80;99.90;;;;;;4992401;28;20248;-84
2021/01/07 04:26:52;;;;;;;15.20;6.07;;;2.80;99.90;;;;;;4992139;28;20873;-84
2021/01/07 04:29:17;;;;;;;8.80;4.63;;;2.80;99.90;;;;;;4992411;28;20481;-84
2021/01/07 04:31:43;;;;;;;9.23;5.63;;;2.80;99.90;;;;;;4993581;28;20724;-84
2021/01/07 04:34:08;;;;;;;10.70;6.10;;;2.90;99.90;;;;;;4992817;28;20219;-85
2021/01/07 04:36:34;;;;;;;9.47;5.40;;;2.90;99.90;;;;;;4997642;28;20254;-84
2021/01/07 04:39:00;;;;;;;8.00;6.40;;;2.90;99.90;;;;;;4997674;28;20170;-84
2021/01/07 04:41:25;;;;;;;10.70;5.83;;;2.90;99.90;;;;;;4997325;28;20179;-84
2021/01/07 04:43:58;;;;;;;11.10;5.67;;;2.90;99.90;;;;;;4997606;28;20418;-85
2021/01/07 04:46:24;;;;;;;10.50;6.00;;;2.80;99.90;;;;;;4997453;28;20175;-84
2021/01/07 04:48:50;;;;;;;8.60;5.37;;;2.80;99.90;;;;;;4996160;28;20503;-85
2021/01/07 04:51:16;;;;;;;9.10;5.80;;;2.80;99.90;;;;;;4995997;28;20465;-85
2021/01/07 04:53:42;;;;;;;8.93;5.80;;;2.80;99.90;;;;;;4997342;28;20849;-85
2021/01/07 04:56:07;;;;;;;8.20;5.77;;;2.80;99.90;;;;;;4997052;28;20262;-85
2021/01/07 04:58:33;;;;;;;9.73;5.50;;;2.80;99.90;;;;;;4996028;28;20179;-84
2021/01/07 05:00:58;;;;;;;7.90;5.10;;;2.80;99.90;;;;;;4997130;28;20675;-85
2021/01/07 05:03:28;;;;;;;9.00;5.80;;;2.80;99.90;;;;;;4995931;28;20177;-85
2021/01/07 05:05:54;;;;;;;7.20;4.20;;;2.80;99.90;;;;;;4997200;28;20250;-84
2021/01/07 05:08:20;;;;;;;8.30;4.17;;;2.80;99.90;;;;;;4995796;28;20564;-85
2021/01/07 05:10:50;;;;;;;8.77;5.37;;;2.80;99.90;;;;;;4995518;28;20179;-84
2021/01/07 05:13:20;;;;;;;7.73;4.47;;;2.80;99.90;;;;;;4996804;28;20213;-84
2021/01/07 05:15:46;;;;;;;8.30;4.97;;;2.80;99.90;;;;;;4996998;28;20411;-85
2021/01/07 05:18:12;;;;;;;8.07;4.37;;;2.80;99.90;;;;;;4996890;28;20422;-85
2021/01/07 05:20:38;;;;;;;7.10;4.30;;;2.80;99.90;;;;;;4996926;28;20174;-85
2021/01/07 05:23:04;;;;;;;7.87;5.33;;;2.80;99.90;;;;;;4996715;28;20825;-85
2021/01/07 05:25:31;;;;;;;6.57;4.00;;;2.80;99.90;;;;;;4996631;28;20925;-85
2021/01/07 05:28:00;;;;;;;5.83;4.50;;;2.80;99.90;;;;;;4996406;28;20425;-85
2021/01/07 05:30:28;;;;;;;8.40;4.27;;;2.70;99.90;;;;;;4996705;28;20410;-85
2021/01/07 05:33:05;;;;;;;7.80;4.70;;;2.70;99.90;;;;;;4996503;28;20520;-85
2021/01/07 05:35:31;;;;;;;5.27;3.60;;;2.70;99.90;;;;;;4996337;28;20421;-85
2021/01/07 05:37:58;;;;;;;9.23;5.50;;;2.70;99.90;;;;;;4996529;28;20430;-85
2021/01/07 05:40:24;;;;;;;6.03;3.43;;;2.70;99.90;;;;;;4995282;28;20476;-85
2021/01/07 05:42:50;;;;;;;8.27;5.13;;;2.70;99.90;;;;;;4996131;28;20454;-85
2021/01/07 05:45:17;;;;;;;9.60;4.57;;;2.70;99.90;;;;;;4994563;28;20460;-84
2021/01/07 05:47:45;;;;;;;9.20;4.77;;;2.70;99.90;;;;;;4996180;28;20214;-84
2021/01/07 05:50:13;;;;;;;8.67;5.07;;;2.70;99.90;;;;;;4996305;28;20425;-85
2021/01/07 05:52:43;;;;;;;7.17;4.87;;;2.70;99.90;;;;;;4996104;28;20969;-85
2021/01/07 05:55:12;;;;;;;9.20;4.57;;;2.70;99.90;;;;;;4996810;28;20432;-85
2021/01/07 05:57:39;;;;;;;7.93;4.13;;;2.70;99.90;;;;;;4994364;28;20429;-85
2021/01/07 06:00:15;;;;;;;9.33;4.60;;;2.70;99.90;;;;;;4994787;28;20937;-84
2021/01/07 06:02:43;;;;;;;8.20;5.50;;;2.70;99.90;;;;;;4996017;28;20768;-85
2021/01/07 06:05:13;;;;;;;8.00;4.83;;;2.70;99.90;;;;;;4996033;28;20423;-84
2021/01/07 06:07:39;;;;;;;6.13;4.13;;;2.70;99.90;;;;;;4995882;28;20402;-84
2021/01/07 06:10:08;;;;;;;7.47;4.37;;;2.60;99.90;;;;;;4995913;28;20413;-85
2021/01/07 06:12:34;;;;;;;8.43;4.40;;;2.70;99.90;;;;;;4994275;28;20818;-85
2021/01/07 06:15:02;;;;;;;6.67;3.30;;;2.70;99.90;;;;;;4994672;28;20424;-83
2021/01/07 06:17:32;;;;;;;10.13;4.43;;;2.70;99.90;;;;;;4995763;28;20528;-84
2021/01/07 06:19:57;;;;;;;6.10;3.17;;;2.60;99.90;;;;;;4995805;28;20569;-83
2021/01/07 06:22:24;;;;;;;6.33;3.73;;;2.60;99.90;;;;;;4995711;28;20411;-83
2021/01/07 06:24:55;;;;;;;6.47;4.20;;;2.60;99.90;;;;;;4995617;28;20642;-83
2021/01/07 06:27:22;;;;;;;9.60;5.70;;;2.60;99.90;;;;;;4995177;28;20508;-83
2021/01/07 06:29:48;;;;;;;6.30;4.03;;;2.50;99.90;;;;;;4995528;28;20419;-84
2021/01/07 06:32:16;;;;;;;6.20;3.40;;;2.60;99.90;;;;;;4994234;28;20417;-84
2021/01/07 06:34:45;;;;;;;5.10;3.20;;;2.60;99.90;;;;;;4995520;28;20481;-84
2021/01/07 06:37:11;;;;;;;6.27;3.80;;;2.60;99.90;;;;;;4995512;28;20421;-84
2021/01/07 06:39:43;;;;;;;8.50;3.80;;;2.60;99.90;;;;;;4995348;28;20431;-84
2021/01/07 06:42:18;;;;;;;7.03;3.23;;;2.60;99.90;;;;;;4994962;28;20174;-83
2021/01/07 06:44:44;;;;;;;6.03;3.20;;;2.60;99.90;;;;;;4995361;28;20501;-84
2021/01/07 06:47:20;;;;;;;5.40;2.63;;;2.60;99.90;;;;;;4995268;28;20407;-84
2021/01/07 06:49:49;;;;;;;7.20;3.27;;;2.60;99.90;;;;;;4994752;28;20780;-83
2021/01/07 06:52:15;;;;;;;5.80;3.03;;;2.60;99.90;;;;;;4994221;28;20454;-83
2021/01/07 06:54:46;;;;;;;9.23;4.57;;;2.60;99.90;;;;;;4994231;28;20436;-83
2021/01/07 06:57:13;;;;;;;6.20;3.93;;;2.60;99.90;;;;;;4993142;28;20788;-84
2021/01/07 06:59:58;;;;;;;9.37;4.33;;;2.60;99.90;;;;;;4994258;28;20415;-83
2021/01/07 07:02:25;;;;;;;7.67;4.23;;;2.60;99.90;;;;;;4994142;28;20513;-84
2021/01/07 07:05:08;;;;;;;8.80;4.10;;;2.60;99.90;;;;;;4994111;28;20905;-83
2021/01/07 07:07:37;;;;;;;8.03;3.60;;;2.60;99.90;;;;;;4992077;28;20962;-83
2021/01/07 07:10:18;;;;;;;8.30;4.20;;;2.60;99.90;;;;;;4993843;28;20460;-83
2021/01/07 07:12:51;;;;;;;6.77;4.40;;;2.60;99.90;;;;;;4993944;28;20456;-83
2021/01/07 07:15:18;;;;;;;8.77;3.73;;;2.50;99.90;;;;;;5009045;28;20442;-83
2021/01/07 07:17:46;;;;;;;7.93;4.10;;;2.50;99.90;;;;;;4993759;28;20507;-83
2021/01/07 07:20:19;;;;;;;7.30;3.90;;;2.60;99.90;;;;;;4993796;28;20421;-83
2021/01/07 07:22:45;;;;;;;7.53;4.63;;;2.60;99.90;;;;;;4993823;28;20527;-83
2021/01/07 07:25:12;;;;;;;9.40;4.37;;;2.60;99.90;;;;;;4992492;28;20433;-83
2021/01/07 07:27:48;;;;;;;7.13;4.33;;;2.60;99.90;;;;;;4993458;28;20469;-83
2021/01/07 07:30:14;;;;;;;8.00;4.10;;;2.60;99.90;;;;;;4993743;28;20408;-83
2021/01/07 07:32:44;;;;;;;6.80;4.30;;;2.70;99.90;;;;;;4993620;28;20556;-83
2021/01/07 07:35:36;;;;;;;7.47;3.90;;;2.60;99.90;;;;;;4992348;28;20414;-83
2021/01/07 07:38:08;;;;;;;6.17;3.10;;;2.70;99.90;;;;;;4993647;28;20402;-83
2021/01/07 07:40:40;;;;;;;6.57;4.50;;;2.70;99.90;;;;;;5008092;28;20423;-83
2021/01/07 07:43:08;;;;;;;9.43;4.23;;;2.70;99.90;;;;;;4992284;28;20406;-83
2021/01/07 07:45:35;;;;;;;5.70;3.93;;;2.70;99.90;;;;;;4993555;28;20409;-83
2021/01/07 07:48:01;;;;;;;4.70;3.50;;;2.70;99.90;;;;;;4993389;28;20412;-85
2021/01/07 07:50:30;;;;;;;8.20;4.37;;;2.70;99.90;;;;;;4993348;28;20820;-84
2021/01/07 07:53:05;;;;;;;5.20;3.07;;;2.70;99.90;;;;;;4972059;28;591543;-84
2021/01/07 07:55:35;;;;;;;6.97;3.10;;;2.80;99.90;;;;;;4993839;28;21541;-83
2021/01/07 07:58:11;;;;;;;6.90;3.63;;;2.70;99.90;;;;;;4993948;28;20782;-84
2021/01/07 08:00:37;;;;;;;6.47;3.80;;;2.80;99.90;;;;;;4993932;28;20428;-84
2021/01/07 08:03:03;;;;;;;5.13;3.20;;;2.80;99.90;;;;;;4992721;28;20431;-84
2021/01/07 08:05:31;;;;;;;6.70;5.00;;;2.80;99.90;;;;;;4994013;28;20445;-84
2021/01/07 08:07:58;;;;;;;6.53;3.60;;;2.80;99.90;;;;;;4993889;28;20416;-84
2021/01/07 08:10:24;;;;;;;4.43;3.43;;;2.80;99.90;;;;;;4993553;28;20419;-84
2021/01/07 08:12:51;;;;;;;7.70;4.30;;;2.80;99.90;;;;;;5008890;28;20469;-84
2021/01/07 08:15:27;;;;;;;4.93;4.13;;;2.80;99.90;;;;;;4992533;28;20520;-84
2021/01/07 08:17:53;;;;;;;6.27;3.17;;;2.80;99.90;;;;;;4993746;28;20492;-84
2021/01/07 08:20:25;;;;;;;7.93;4.50;;;2.90;99.90;;;;;;4993784;28;20873;-84
2021/01/07 08:22:54;;;;;;;7.70;4.20;;;2.90;99.90;;;;;;4993644;28;20209;-84
2021/01/07 08:25:29;;;;;;;6.30;4.33;;;2.90;99.90;;;;;;4993360;28;20457;-84
2021/01/07 08:28:00;;;;;;;7.63;5.13;;;2.90;99.90;;;;;;4993634;28;20900;-84
2021/01/07 08:30:26;;;;;;;7.97;4.63;;;2.90;99.90;;;;;;5008712;28;20526;-84
2021/01/07 08:32:57;;;;;;;9.13;5.00;;;2.90;99.90;;;;;;4993592;28;20616;-84
2021/01/07 08:35:23;;;;;;;9.20;4.70;;;2.90;99.90;;;;;;4993465;28;20409;-84
2021/01/07 08:37:49;;;;;;;8.03;5.67;;;2.90;99.90;;;;;;4992553;28;20794;-84
2021/01/07 08:40:15;;;;;;;8.13;5.57;;;3.00;99.90;;;;;;4993439;28;20421;-84
2021/01/07 08:42:41;;;;;;;7.60;5.00;;;3.00;99.90;;;;;;4992273;28;20296;-84
2021/01/07 08:45:09;;;;;;;11.03;5.43;;;3.00;99.90;;;;;;4993568;28;20500;-84
2021/01/07 08:47:35;;;;;;;11.13;6.07;;;3.00;99.90;;;;;;4993469;28;20559;-83
2021/01/07 08:50:04;;;;;;;8.53;5.43;;;3.00;99.90;;;;;;4992102;28;20433;-83
2021/01/07 08:52:30;;;;;;;10.73;5.50;;;3.00;99.90;;;;;;4993156;28;20473;-83
2021/01/07 08:54:55;;;;;;;9.30;5.27;;;3.10;99.90;;;;;;4992175;28;20530;-83
2021/01/07 08:57:21;;;;;;;8.20;5.27;;;3.10;99.90;;;;;;4992997;28;20170;-82
2021/01/07 08:59:47;;;;;;;11.03;5.17;;;3.20;99.90;;;;;;4993310;28;20647;-82
2021/01/07 09:02:19;;;;;;;9.33;5.67;;;3.20;99.90;;;;;;4993351;28;20317;-83
2021/01/07 09:04:45;;;;;;;10.17;6.90;;;3.20;99.90;;;;;;4993378;28;20509;-83
2021/01/07 09:07:14;;;;;;;9.80;5.40;;;3.30;99.90;;;;;;4993216;28;20399;-83
2021/01/07 09:09:51;;;;;;;11.07;5.87;;;3.30;99.90;;;;;;4993273;28;20818;-83
2021/01/07 09:12:22;;;;;;;7.50;4.90;;;3.30;99.90;;;;;;4991459;28;20425;-83
2021/01/07 09:14:49;;;;;;;8.00;4.50;;;3.30;99.90;;;;;;4991983;28;20538;-83
2021/01/07 09:17:16;;;;;;;9.27;4.93;;;3.40;99.90;;;;;;4985756;28;20431;-83
2021/01/07 09:19:42;;;;;;;9.30;5.40;;;3.40;99.90;;;;;;4990469;28;20958;-82
2021/01/07 09:22:08;;;;;;;9.30;5.87;;;3.40;99.90;;;;;;5006884;28;20529;-84
2021/01/07 09:24:35;;;;;;;13.00;6.07;;;3.40;99.90;;;;;;4988751;28;20867;-83
2021/01/07 09:27:08;;;;;;;8.33;4.70;;;3.40;99.90;;;;;;4995764;28;20278;-83
2021/01/07 09:29:35;;;;;;;8.50;4.37;;;3.40;99.90;;;;;;4996330;28;20562;-82
2021/01/07 09:32:01;;;;;;;11.30;5.47;;;3.50;99.90;;;;;;4996003;28;20472;-83
2021/01/07 09:34:26;;;;;;;11.50;5.90;;;3.50;99.90;;;;;;4995918;28;21049;-83
2021/01/07 09:36:52;;;;;;;13.50;5.80;;;3.50;99.90;;;;;;4995958;28;20164;-83
2021/01/07 09:39:18;;;;;;;12.53;5.33;;;3.50;99.90;;;;;;4994764;28;20180;-83
2021/01/07 09:41:43;;;;;;;10.53;5.53;;;3.60;99.90;;;;;;4994259;28;20206;-84
2021/01/07 09:44:09;;;;;;;9.43;4.93;;;3.60;99.90;;;;;;4994614;28;20444;-85
2021/01/07 09:46:35;;;;;;;8.53;5.63;;;3.60;99.90;;;;;;4994694;28;20186;-83
2021/01/07 09:49:00;;;;;;;11.40;5.73;;;3.60;99.90;;;;;;4994248;28;20175;-83
2021/01/07 09:51:26;;;;;;;7.10;5.43;;;3.70;99.90;;;;;;4995535;28;20742;-83
2021/01/07 09:53:51;;;;;;;8.27;5.50;;;3.70;99.90;;;;;;4995750;28;20578;-83
2021/01/07 09:56:17;;;;;;;12.10;6.03;;;3.80;99.90;;;;;;4995335;28;20179;-83
2021/01/07 09:58:42;;;;;;;9.90;4.73;;;3.90;99.90;;;;;;4995683;28;20203;-83
2021/01/07 10:01:08;;;;;;;6.67;4.80;;;4.00;99.90;;;;;;4995642;28;20175;-83
2021/01/07 10:03:34;;;;;;;10.50;6.40;;;4.10;99.90;;;;;;4995514;28;20179;-84
2021/01/07 10:05:59;;;;;;;10.83;5.27;;;4.00;99.90;;;;;;4995529;28;20164;-83
2021/01/07 10:08:25;;;;;;;6.90;4.40;;;4.10;99.90;;;;;;4995385;28;20179;-83
2021/01/07 10:10:50;;;;;;;13.00;5.67;;;4.20;99.90;;;;;;4993708;28;20183;-83
2021/01/07 10:13:16;;;;;;;8.50;4.80;;;4.30;99.90;;;;;;4995161;28;21279;-84
2021/01/07 10:15:41;;;;;;;7.50;4.10;;;4.30;99.90;;;;;;4995371;28;20275;-83
2021/01/07 10:18:07;;;;;;;6.87;4.70;;;4.30;99.90;;;;;;4995242;28;20163;-84
2021/01/07 10:20:33;;;;;;;5.97;3.93;;;4.30;99.90;;;;;;4995163;28;20179;-83
2021/01/07 10:23:00;;;;;;;7.53;4.20;;;4.30;99.90;;;;;;4993890;28;20179;-83
2021/01/07 10:25:26;;;;;;;5.23;3.50;;;4.30;99.90;;;;;;4993375;28;20167;-82
2021/01/07 10:27:51;;;;;;;5.57;2.73;;;4.30;99.90;;;;;;4992173;28;20514;-84
2021/01/07 10:30:18;;;;;;;7.57;3.20;;;4.30;99.90;;;;;;5006290;28;20524;-83
2021/01/07 10:32:44;;;;;;;5.97;3.23;;;4.30;99.90;;;;;;4992023;28;20821;-82
2021/01/07 10:35:10;;;;;;;3.87;3.30;;;4.30;99.90;;;;;;4994074;28;20418;-82
2021/01/07 10:37:38;;;;;;;5.20;3.20;;;4.30;99.90;;;;;;4994573;28;20206;-83
2021/01/07 10:40:05;;;;;;;5.17;3.10;;;4.20;99.90;;;;;;4994173;28;20402;-82
2021/01/07 10:42:32;;;;;;;6.87;3.90;;;4.30;99.90;;;;;;5032708;23;20495;-82
2021/01/07 10:44:58;;;;;;;5.60;4.20;;;4.30;99.90;;;;;;4991879;28;20449;-84
2021/01/07 10:47:29;;;;;;;4.20;3.10;;;4.30;99.90;;;;;;4994436;28;20427;-83
2021/01/07 10:50:01;;;;;;;4.23;2.90;;;4.40;99.90;;;;;;4993055;28;20485;-83
2021/01/07 10:52:39;;;;;;;6.03;3.43;;;4.40;99.90;;;;;;4993081;28;20469;-83
2021/01/07 10:55:23;;;;;;;5.97;3.53;;;4.40;99.90;;;;;;4993854;28;20460;-82
2021/01/07 10:57:51;;;;;;;4.43;2.10;;;4.20;99.90;;;;;;4993564;28;20430;-83
2021/01/07 11:00:56;;;;;;;3.93;3.13;;;4.20;99.90;;;;;;4995885;28;20434;-83
2021/01/07 11:03:37;;;;;;;6.23;3.73;;;4.20;99.90;;;;;;5006989;28;20418;-82
2021/01/07 11:06:06;;;;;;;6.87;3.70;;;4.20;99.90;;;;;;4994201;28;20410;-82
2021/01/07 11:09:12;;;;;;;8.40;3.67;;;4.20;99.90;;;;;;4976154;28;20484;-83
2021/01/07 11:11:46;;;;;;;4.77;2.50;;;4.20;99.90;;;;;;4982853;28;20426;-82
2021/01/07 11:14:52;;;;;;;5.47;3.23;;;4.10;99.90;;;;;;4983464;28;20565;-84
2021/01/07 11:17:23;;;;;;;5.20;3.37;;;4.10;99.90;;;;;;5014473;28;20449;-90
2021/01/07 11:19:50;;;;;;;6.17;3.50;;;4.20;99.90;;;;;;4997775;28;20419;-90
2021/01/07 11:22:27;;;;;;;3.70;1.93;;;4.10;99.90;;;;;;5013478;28;20418;-87
2021/01/07 11:24:54;;;;;;;7.60;2.47;;;4.10;99.90;;;;;;5008192;28;20434;-88
2021/01/07 11:27:22;;;;;;;3.53;1.83;;;4.10;99.90;;;;;;4997154;28;20478;-89
2021/01/07 11:29:49;;;;;;;3.90;2.10;;;4.10;99.90;;;;;;4992779;28;20422;-91
2021/01/07 11:32:16;;;;;;;3.77;1.10;;;4.10;99.90;;;;;;5013812;28;20451;-90
2021/01/07 11:34:42;;;;;;;3.10;1.97;;;4.10;99.90;;;;;;4987221;28;20802;-88
2021/01/07 11:37:21;;;;;;;4.40;1.80;;;4.20;99.90;;;;;;4977087;28;20431;-85
2021/01/07 11:39:58;;;;;;;2.57;1.60;;;4.20;99.90;;;;;;4994538;28;20422;-89
2021/01/07 11:42:48;;;;;;;3.67;1.97;;;4.20;99.90;;;;;;4977393;28;21057;-87
2021/01/07 11:45:31;;;;;;;3.13;1.43;;;4.20;99.90;;;;;;4976885;28;20411;-87
2021/01/07 11:48:05;;;;;;;2.70;1.40;;;4.20;99.90;;;;;;4976804;28;20477;-88
2021/01/07 11:50:36;;;;;;;2.90;1.77;;;4.20;99.90;;;;;;4976704;28;20919;-86
2021/01/07 11:53:04;;;;;;;3.33;2.13;;;4.20;99.90;;;;;;4976773;28;20564;-87
2021/01/07 11:55:30;;;;;;;2.80;0.90;;;4.20;99.90;;;;;;4977377;28;20415;-85
2021/01/07 11:57:58;;;;;;;2.60;1.70;;;4.20;99.90;;;;;;4994935;28;20417;-88
2021/01/07 12:00:23;;;;;;;2.00;1.60;;;4.20;99.90;;;;;;4996491;28;20422;-88
2021/01/07 12:02:50;;;;;;;2.73;1.67;;;4.20;99.90;;;;;;5012105;28;20416;-86
2021/01/07 12:05:18;;;;;;;3.80;1.90;;;4.20;99.90;;;;;;5004651;28;20185;-89
2021/01/07 12:08:02;;;;;;;2.83;1.57;;;4.10;99.90;;;;;;5013278;28;21007;-89
2021/01/07 12:10:29;;;;;;;2.40;1.40;;;4.10;99.90;;;;;;4996824;28;20429;-89
2021/01/07 12:13:21;;;;;;;3.07;1.60;;;4.10;99.90;;;;;;5013282;28;20461;-86
2021/01/07 12:15:52;;;;;;;2.53;1.80;;;4.10;99.90;;;;;;4976849;28;20943;-87
2021/01/07 12:18:18;;;;;;;2.77;1.17;;;4.10;99.90;;;;;;5003537;28;20987;-87
2021/01/07 12:20:46;;;;;;;3.40;1.73;;;4.10;99.90;;;;;;5012528;28;20791;-87
2021/01/07 12:23:13;;;;;;;3.40;0.80;;;4.10;99.90;;;;;;5013515;28;20429;-87
2021/01/07 12:25:41;;;;;;;2.97;1.57;;;4.10;99.90;;;;;;5000650;28;20410;-86
2021/01/07 12:28:07;;;;;;;3.20;1.57;;;4.20;99.90;;;;;;4992845;28;20430;-83
2021/01/07 12:30:49;;;;;;;3.10;1.47;;;4.30;99.90;;;;;;4994179;28;20434;-84
2021/01/07 12:33:40;;;;;;;2.97;1.60;;;4.30;99.90;;;;;;4992838;28;20485;-84
2021/01/07 12:36:39;;;;;;;3.20;1.20;;;4.30;99.90;;;;;;4975435;28;20426;-86
2021/01/07 12:39:07;;;;;;;2.60;1.90;;;4.30;99.90;;;;;;4989109;28;20801;-86
2021/01/07 12:41:47;;;;;;;4.57;1.67;;;4.30;99.90;;;;;;4992566;28;20549;-85
2021/01/07 12:44:14;;;;;;;2.87;1.80;;;4.30;99.90;;;;;;4975418;28;20521;-86
2021/01/07 12:46:50;;;;;;;1.90;0.80;;;4.30;99.90;;;;;;5041743;23;20498;-89
2021/01/07 12:49:16;;;;;;;2.70;1.73;;;4.30;99.90;;;;;;5016578;28;20455;-87
2021/01/07 12:51:47;;;;;;;3.13;1.73;;;4.20;99.90;;;;;;4993368;28;20910;-87
2021/01/07 12:54:16;;;;;;;3.10;1.70;;;4.20;99.90;;;;;;4993844;28;20480;-88
2021/01/07 12:57:03;;;;;;;2.30;1.13;;;4.20;99.90;;;;;;5012462;28;20514;-90
2021/01/07 12:59:42;;;;;;;2.03;1.20;;;4.20;99.90;;;;;;5000587;28;20454;-88
2021/01/07 13:02:39;;;;;;;2.40;1.13;;;4.20;99.90;;;;;;5000018;28;20410;-90